createdAt,value
2023-06-29T00:01:06.820Z,72.51
2023-06-29T00:03:33.654Z,72.78
2023-06-29T00:06:01.017Z,72.82
2023-06-29T00:08:28.497Z,73.15
2023-06-29T00:10:55.926Z,73.15
2023-06-29T00:13:23.271Z,73.01
2023-06-29T00:15:50.226Z,73.17
2023-06-29T00:18:17.427Z,73.36
2023-06-29T00:20:46.087Z,73.09
2023-06-29T00:23:12.713Z,72.99
2023-06-29T00:25:40.371Z,72.93
2023-06-29T00:28:06.960Z,73.00
2023-06-29T00:30:33.592Z,73.08
2023-06-29T00:33:00.169Z,73.01
2023-06-29T00:35:29.506Z,73.32
2023-06-29T00:37:57.581Z,73.13
2023-06-29T00:40:24.151Z,73.35
2023-06-29T00:42:51.148Z,73.36
2023-06-29T00:45:17.774Z,73.00
2023-06-29T00:47:44.877Z,72.81
2023-06-29T00:50:11.639Z,72.72
2023-06-29T00:52:38.263Z,72.80
2023-06-29T00:55:05.188Z,73.01
2023-06-29T00:57:31.758Z,73.44
2023-06-29T01:00:01.464Z,73.27
2023-06-29T01:02:31.158Z,73.45
2023-06-29T01:04:58.622Z,73.86
2023-06-29T01:07:25.222Z,73.92
2023-06-29T01:09:53.433Z,73.79
2023-06-29T01:12:20.661Z,73.88
2023-06-29T01:14:49.317Z,74.06
2023-06-29T01:17:16.698Z,74.07
2023-06-29T01:19:44.372Z,74.33
2023-06-29T01:22:13.276Z,73.83
2023-06-29T01:24:40.258Z,73.62
2023-06-29T01:27:10.207Z,73.18
2023-06-29T01:29:36.916Z,72.90
2023-06-29T01:32:04.670Z,73.09
2023-06-29T01:34:32.552Z,72.37
2023-06-29T01:37:11.319Z,72.22
2023-06-29T01:39:48.734Z,72.00
2023-06-29T01:42:15.295Z,71.38
2023-06-29T01:44:41.884Z,71.51
2023-06-29T01:47:09.861Z,71.67
2023-06-29T01:49:36.989Z,71.68
2023-06-29T01:52:04.628Z,71.69
2023-06-29T01:54:31.422Z,71.71
2023-06-29T01:56:58.338Z,71.58
2023-06-29T01:59:25.042Z,71.46
2023-06-29T02:01:51.814Z,71.27
2023-06-29T02:04:18.433Z,71.01
2023-06-29T02:06:45.075Z,70.20
2023-06-29T02:09:11.637Z,70.14
2023-06-29T02:11:38.464Z,70.13
2023-06-29T02:14:04.998Z,70.58
2023-06-29T02:16:31.610Z,70.34
2023-06-29T02:18:58.248Z,70.89
2023-06-29T02:21:24.866Z,70.43
2023-06-29T02:23:51.428Z,70.56
2023-06-29T02:26:18.036Z,69.98
2023-06-29T02:28:44.626Z,69.93
2023-06-29T02:31:11.234Z,69.41
2023-06-29T02:33:38.074Z,69.92
2023-06-29T02:36:04.769Z,70.42
2023-06-29T02:38:31.506Z,70.66
2023-06-29T02:40:58.109Z,70.90
2023-06-29T02:43:24.857Z,70.95
2023-06-29T02:45:51.496Z,70.77
2023-06-29T02:48:19.353Z,70.39
2023-06-29T02:50:45.980Z,70.53
2023-06-29T02:53:15.663Z,70.77
2023-06-29T02:55:42.394Z,70.86
2023-06-29T02:58:09.175Z,71.01
2023-06-29T03:00:35.709Z,70.77
2023-06-29T03:03:02.673Z,70.90
2023-06-29T03:05:29.656Z,70.48
2023-06-29T03:07:56.356Z,70.75
2023-06-29T03:10:23.058Z,70.44
2023-06-29T03:12:49.791Z,69.82
2023-06-29T03:15:16.302Z,69.74
2023-06-29T03:17:42.948Z,70.40
2023-06-29T03:20:09.898Z,70.66
2023-06-29T03:22:36.427Z,70.67
2023-06-29T03:25:02.964Z,70.56
2023-06-29T03:27:29.629Z,69.42
2023-06-29T03:29:56.240Z,66.08
2023-06-29T03:32:22.855Z,60.45
2023-06-29T03:34:49.438Z,57.48
2023-06-29T03:37:15.961Z,54.06
2023-06-29T03:39:42.527Z,51.59
2023-06-29T03:42:09.120Z,50.27
2023-06-29T03:44:35.652Z,49.03
2023-06-29T03:47:02.245Z,47.31
2023-06-29T03:49:28.801Z,46.38
2023-06-29T03:51:55.528Z,44.45
2023-06-29T03:54:22.021Z,42.30
2023-06-29T03:56:48.634Z,42.46
2023-06-29T03:59:15.153Z,42.64
2023-06-29T04:01:41.762Z,40.72
2023-06-29T04:04:08.374Z,40.54
2023-06-29T04:06:34.949Z,39.67
2023-06-29T04:09:01.487Z,39.19
2023-06-29T04:11:28.083Z,38.64
2023-06-29T04:13:54.725Z,38.42
2023-06-29T04:16:21.292Z,37.15
2023-06-29T04:18:47.935Z,36.75
2023-06-29T04:21:14.542Z,35.51
2023-06-29T04:23:41.181Z,36.58
2023-06-29T04:26:08.846Z,35.45
2023-06-29T04:28:39.159Z,35.23
2023-06-29T04:31:06.655Z,34.68
2023-06-29T04:33:39.764Z,35.01
2023-06-29T04:36:17.106Z,33.96
2023-06-29T04:38:45.003Z,34.64
2023-06-29T04:41:12.794Z,34.21
2023-06-29T04:43:40.312Z,33.46
2023-06-29T04:46:07.718Z,33.61
2023-06-29T04:48:38.902Z,32.21
2023-06-29T04:51:07.091Z,32.80
2023-06-29T04:53:38.625Z,32.88
2023-06-29T04:56:06.116Z,31.07
2023-06-29T04:58:33.728Z,31.60
2023-06-29T05:01:01.308Z,29.66
2023-06-29T05:03:29.414Z,28.98
2023-06-29T05:05:56.540Z,29.36
2023-06-29T05:08:23.749Z,29.80
2023-06-29T05:10:51.590Z,30.82
2023-06-29T05:13:19.028Z,28.79
2023-06-29T05:15:49.120Z,29.60
2023-06-29T05:18:17.221Z,29.65
2023-06-29T05:20:44.332Z,28.95
2023-06-29T05:23:12.966Z,28.93
2023-06-29T05:25:41.907Z,30.50
2023-06-29T05:28:10.038Z,30.18
2023-06-29T05:30:37.580Z,29.57
2023-06-29T05:33:06.068Z,29.26
2023-06-29T05:35:35.873Z,31.16
2023-06-29T05:38:03.652Z,30.66
2023-06-29T05:40:30.883Z,30.91
2023-06-29T05:42:57.984Z,29.91
2023-06-29T05:45:25.494Z,29.88
2023-06-29T05:47:56.756Z,28.35
2023-06-29T05:50:24.565Z,28.77
2023-06-29T05:52:52.564Z,29.07
2023-06-29T05:55:20.873Z,30.65
2023-06-29T05:57:48.810Z,29.92
2023-06-29T06:00:16.536Z,29.38
2023-06-29T06:02:45.249Z,30.46
2023-06-29T06:05:12.729Z,29.72
2023-06-29T06:07:41.096Z,32.06
2023-06-29T06:10:09.015Z,31.02
2023-06-29T06:12:36.388Z,32.16
2023-06-29T06:15:04.668Z,32.33
2023-06-29T06:17:31.783Z,29.40
2023-06-29T06:19:59.300Z,30.23
2023-06-29T06:22:27.158Z,31.64
2023-06-29T06:24:55.406Z,30.57
2023-06-29T06:27:22.620Z,28.42
2023-06-29T06:29:53.399Z,28.79
2023-06-29T06:32:25.717Z,29.06
2023-06-29T06:34:53.334Z,27.67
2023-06-29T06:37:21.234Z,28.25
2023-06-29T06:39:48.524Z,29.45
2023-06-29T06:42:15.902Z,28.50
2023-06-29T06:44:53.901Z,30.46
2023-06-29T06:47:24.985Z,30.93
2023-06-29T06:49:51.929Z,29.98
2023-06-29T06:52:19.965Z,29.96
2023-06-29T06:54:47.328Z,29.85
2023-06-29T06:57:14.710Z,31.04
2023-06-29T06:59:42.712Z,30.68
2023-06-29T07:02:09.931Z,28.77
2023-06-29T07:04:37.342Z,29.75
2023-06-29T07:07:05.080Z,29.09
2023-06-29T07:09:32.514Z,30.16
2023-06-29T07:12:03.018Z,29.90
2023-06-29T07:14:30.611Z,30.20
2023-06-29T07:16:57.945Z,31.03
2023-06-29T07:24:26.162Z,30.14
2023-06-29T07:26:53.604Z,29.62
2023-06-29T07:29:20.741Z,29.36
2023-06-29T07:31:47.799Z,31.02
2023-06-29T07:34:15.882Z,32.49
2023-06-29T07:36:43.366Z,32.77
2023-06-29T07:39:10.870Z,30.82
2023-06-29T07:41:39.364Z,29.96
2023-06-29T07:44:06.751Z,32.16
2023-06-29T07:46:34.183Z,32.58
2023-06-29T07:49:01.690Z,33.07
2023-06-29T07:51:34.206Z,32.13
2023-06-29T07:54:05.619Z,31.42
2023-06-29T07:59:04.110Z,32.58
2023-06-29T08:01:31.906Z,34.55
2023-06-29T08:04:03.528Z,34.37
2023-06-29T08:09:05.740Z,33.47
2023-06-29T08:11:33.252Z,33.53
2023-06-29T08:14:01.020Z,34.74
2023-06-29T08:16:28.176Z,33.90
2023-06-29T08:18:55.291Z,33.78
2023-06-29T08:21:22.678Z,34.58
2023-06-29T08:23:52.155Z,33.59
2023-06-29T08:26:19.351Z,34.61
2023-06-29T08:28:49.593Z,35.03
2023-06-29T08:31:20.728Z,35.45
2023-06-29T08:33:50.621Z,34.55
2023-06-29T08:36:17.947Z,34.60
2023-06-29T08:38:47.296Z,35.13
2023-06-29T08:41:15.198Z,33.62
2023-06-29T08:43:43.156Z,32.17
2023-06-29T08:46:11.722Z,32.56
2023-06-29T08:48:43.864Z,33.31
2023-06-29T08:51:15.851Z,33.92
2023-06-29T08:53:44.072Z,33.41
2023-06-29T08:56:12.982Z,33.57
2023-06-29T08:58:41.399Z,34.91
2023-06-29T09:01:11.092Z,34.27
2023-06-29T09:03:39.630Z,33.11
2023-06-29T09:06:07.886Z,33.75
2023-06-29T09:08:38.699Z,35.63
2023-06-29T09:11:06.876Z,33.87
2023-06-29T09:13:35.044Z,34.20
2023-06-29T09:16:03.679Z,32.68
2023-06-29T09:18:31.514Z,34.03
2023-06-29T09:20:59.559Z,34.03
2023-06-29T09:23:27.728Z,34.39
2023-06-29T09:25:56.703Z,34.64
2023-06-29T09:28:25.497Z,34.01
2023-06-29T09:30:53.132Z,33.49
2023-06-29T09:33:21.797Z,33.50
2023-06-29T09:35:52.053Z,32.96
2023-06-29T09:38:20.221Z,32.71
2023-06-29T09:40:49.685Z,33.39
2023-06-29T09:43:18.242Z,32.66
2023-06-29T09:45:45.765Z,31.33
2023-06-29T09:50:53.274Z,32.05
2023-06-29T09:53:32.573Z,33.43
2023-06-29T09:56:01.649Z,31.90
2023-06-29T09:58:32.975Z,33.00
2023-06-29T10:01:01.885Z,31.50
2023-06-29T10:03:33.152Z,33.26
2023-06-29T10:06:05.461Z,33.02
2023-06-29T10:08:35.938Z,32.26
2023-06-29T10:11:05.254Z,31.73
2023-06-29T10:13:35.640Z,32.47
2023-06-29T10:16:04.810Z,31.85
2023-06-29T10:18:38.148Z,33.32
2023-06-29T10:21:06.406Z,33.15
2023-06-29T10:23:34.687Z,31.96
2023-06-29T10:26:03.489Z,32.50
2023-06-29T10:28:31.578Z,31.72
2023-06-29T10:31:00.146Z,31.97
2023-06-29T10:33:27.698Z,33.08
2023-06-29T10:35:58.740Z,32.09
2023-06-29T10:38:34.146Z,31.60
2023-06-29T10:41:01.519Z,32.01
2023-06-29T10:43:29.062Z,31.71
2023-06-29T10:45:56.003Z,31.95
2023-06-29T10:48:43.117Z,31.53
2023-06-29T10:51:09.997Z,31.52
2023-06-29T10:53:37.453Z,32.70
2023-06-29T10:56:04.502Z,32.45
2023-06-29T10:58:39.037Z,31.43
2023-06-29T11:01:06.494Z,30.61
2023-06-29T11:03:34.144Z,31.34
2023-06-29T11:06:03.381Z,30.70
2023-06-29T11:08:31.994Z,31.40
2023-06-29T11:11:12.776Z,31.39
2023-06-29T11:13:40.552Z,32.96
2023-06-29T11:16:08.154Z,31.08
2023-06-29T11:18:35.296Z,31.70
2023-06-29T11:21:03.675Z,31.73
2023-06-29T11:23:30.913Z,31.32
2023-06-29T11:26:01.964Z,31.78
2023-06-29T11:28:31.941Z,32.09
2023-06-29T11:30:59.301Z,33.55
2023-06-29T11:36:15.281Z,32.66
2023-06-29T11:38:43.428Z,32.05
2023-06-29T11:41:11.096Z,31.79
2023-06-29T11:43:37.970Z,32.58
2023-06-29T11:46:04.719Z,31.26
2023-06-29T11:48:31.516Z,30.94
2023-06-29T11:51:00.283Z,32.75
2023-06-29T11:53:27.147Z,32.60
2023-06-29T11:55:54.769Z,32.00
2023-06-29T11:58:21.376Z,31.13
2023-06-29T12:00:56.418Z,31.49
2023-06-29T12:03:24.431Z,31.69
2023-06-29T12:05:52.034Z,32.94
2023-06-29T12:08:21.654Z,32.09
2023-06-29T12:10:48.477Z,31.12
2023-06-29T12:13:15.169Z,31.06
2023-06-29T12:18:31.176Z,31.17
2023-06-29T12:21:02.356Z,32.45
2023-06-29T12:23:29.105Z,31.65
2023-06-29T12:25:55.976Z,31.57
2023-06-29T12:28:23.068Z,31.04
2023-06-29T12:30:49.672Z,31.35
2023-06-29T12:33:16.303Z,31.60
2023-06-29T12:35:46.040Z,31.40
2023-06-29T12:38:13.355Z,31.81
2023-06-29T12:40:40.177Z,32.42
2023-06-29T12:43:06.723Z,31.86
2023-06-29T12:45:33.329Z,31.92
2023-06-29T12:47:59.926Z,32.38
2023-06-29T12:50:26.617Z,32.16
2023-06-29T12:52:53.357Z,31.54
2023-06-29T12:55:19.989Z,30.62
2023-06-29T12:57:46.664Z,31.06
2023-06-29T13:00:13.842Z,31.30
2023-06-29T13:02:40.949Z,31.47
2023-06-29T13:05:07.786Z,30.71
2023-06-29T13:07:35.877Z,31.50
2023-06-29T13:10:04.345Z,31.21
2023-06-29T13:12:31.484Z,31.58
2023-06-29T13:14:59.181Z,31.95
2023-06-29T13:17:25.884Z,31.28
2023-06-29T13:19:52.547Z,31.52
2023-06-29T13:22:19.565Z,30.89
2023-06-29T13:24:47.183Z,31.00
2023-06-29T13:27:13.965Z,31.97
2023-06-29T13:29:40.648Z,31.61
2023-06-29T13:32:07.724Z,32.19
2023-06-29T13:34:35.392Z,32.89
2023-06-29T13:37:02.106Z,33.34
2023-06-29T13:39:29.378Z,33.45
2023-06-29T13:41:55.946Z,33.92
2023-06-29T13:44:22.475Z,34.16
2023-06-29T13:46:49.060Z,33.54
2023-06-29T13:49:16.655Z,32.88
2023-06-29T13:51:43.714Z,32.84
2023-06-29T13:54:10.284Z,32.92
2023-06-29T13:56:38.802Z,32.37
2023-06-29T13:59:09.596Z,32.59
2023-06-29T14:01:37.146Z,32.15
2023-06-29T14:04:04.494Z,32.02
2023-06-29T14:06:31.137Z,32.05
2023-06-29T14:08:57.687Z,32.29
2023-06-29T14:11:24.719Z,32.44
2023-06-29T14:13:55.549Z,32.81
2023-06-29T14:16:24.308Z,32.69
2023-06-29T14:18:55.033Z,32.68
2023-06-29T14:21:22.833Z,32.41
2023-06-29T14:23:50.894Z,32.66
2023-06-29T14:26:18.560Z,32.10
2023-06-29T14:28:46.236Z,32.02
2023-06-29T14:31:14.288Z,32.08
2023-06-29T14:33:41.766Z,32.55
2023-06-29T14:36:09.517Z,32.23
2023-06-29T14:38:37.973Z,31.87
2023-06-29T14:41:05.608Z,32.37
2023-06-29T14:43:35.716Z,32.12
2023-06-29T14:46:03.601Z,31.84
2023-06-29T14:48:32.094Z,32.38
2023-06-29T14:50:59.830Z,32.28
2023-06-29T14:53:27.585Z,32.67
2023-06-29T14:56:07.723Z,32.41
2023-06-29T14:58:35.002Z,32.06
2023-06-29T15:01:02.826Z,31.62
2023-06-29T15:03:30.347Z,31.67
2023-06-29T15:05:58.255Z,32.92
2023-06-29T15:08:25.822Z,31.63
2023-06-29T15:10:53.342Z,33.61
2023-06-29T15:13:20.477Z,32.22
2023-06-29T15:15:47.900Z,31.79
2023-06-29T15:18:16.013Z,31.94
2023-06-29T15:20:44.159Z,31.97
2023-06-29T15:23:11.884Z,31.92
2023-06-29T15:25:40.532Z,32.37
2023-06-29T15:28:10.197Z,32.40
2023-06-29T15:30:52.067Z,31.89
2023-06-29T15:33:19.975Z,32.55
2023-06-29T15:35:48.184Z,33.24
2023-06-29T15:38:16.223Z,33.21
2023-06-29T15:40:44.775Z,32.97
2023-06-29T15:43:12.160Z,32.75
2023-06-29T15:45:40.112Z,32.63
2023-06-29T15:48:07.645Z,32.56
2023-06-29T15:50:36.939Z,32.28
2023-06-29T15:53:04.609Z,33.31
2023-06-29T15:55:31.388Z,33.68
2023-06-29T15:57:57.904Z,33.57
2023-06-29T16:00:24.523Z,33.67
2023-06-29T16:02:51.116Z,34.08
2023-06-29T16:05:18.931Z,33.79
2023-06-29T16:07:45.622Z,33.85
2023-06-29T16:10:12.749Z,33.74
2023-06-29T16:12:40.346Z,33.45
2023-06-29T16:15:07.136Z,33.33
2023-06-29T16:17:33.693Z,33.29
2023-06-29T16:20:00.504Z,34.43
2023-06-29T16:22:27.202Z,33.82
2023-06-29T16:24:53.762Z,34.04
2023-06-29T16:27:20.327Z,33.82
2023-06-29T16:29:46.889Z,34.29
2023-06-29T16:32:13.698Z,34.03
2023-06-29T16:34:40.330Z,33.93
2023-06-29T16:37:07.995Z,34.60
2023-06-29T16:39:36.749Z,34.58
2023-06-29T16:42:03.391Z,35.64
2023-06-29T16:44:29.872Z,35.90
2023-06-29T16:46:56.529Z,36.14
2023-06-29T16:49:23.158Z,35.90
2023-06-29T16:51:49.844Z,36.59
2023-06-29T16:54:16.558Z,36.31
2023-06-29T16:56:43.844Z,35.85
2023-06-29T16:59:10.397Z,35.89
2023-06-29T17:01:37.022Z,35.67
2023-06-29T17:04:04.242Z,36.75
2023-06-29T17:06:30.800Z,36.97
2023-06-29T17:08:57.644Z,36.30
2023-06-29T17:11:24.138Z,36.38
2023-06-29T17:13:51.447Z,36.75
2023-06-29T17:16:18.042Z,36.96
2023-06-29T17:18:44.646Z,36.39
2023-06-29T17:21:11.285Z,36.87
2023-06-29T17:23:37.840Z,37.15
2023-06-29T17:26:05.185Z,37.11
2023-06-29T17:28:31.804Z,36.81
2023-06-29T17:30:58.416Z,36.83
2023-06-29T17:33:24.985Z,37.12
2023-06-29T17:35:51.532Z,37.45
2023-06-29T17:38:18.106Z,37.70
2023-06-29T17:40:44.666Z,38.27
2023-06-29T17:43:11.204Z,37.93
2023-06-29T17:45:37.869Z,38.49
2023-06-29T17:48:04.632Z,38.76
2023-06-29T17:50:31.216Z,38.86
2023-06-29T17:52:57.704Z,39.15
2023-06-29T17:55:24.242Z,39.42
2023-06-29T17:57:50.778Z,39.43
2023-06-29T18:00:17.597Z,39.54
2023-06-29T18:02:45.127Z,39.52
2023-06-29T18:05:13.220Z,39.69
2023-06-29T18:07:41.266Z,39.74
2023-06-29T18:10:10.792Z,39.74
2023-06-29T18:12:39.457Z,39.82
2023-06-29T18:15:08.265Z,39.87
2023-06-29T18:17:36.205Z,39.88
2023-06-29T18:20:03.928Z,40.16
2023-06-29T18:22:35.331Z,40.32
2023-06-29T18:25:03.747Z,40.63
2023-06-29T18:27:34.215Z,41.03
2023-06-29T18:30:01.689Z,40.86
2023-06-29T18:32:29.203Z,41.05
2023-06-29T18:34:56.788Z,41.38
2023-06-29T18:37:24.963Z,41.27
2023-06-29T18:39:51.460Z,41.36
2023-06-29T18:42:18.177Z,41.48
2023-06-29T18:44:44.773Z,41.49
2023-06-29T18:47:12.639Z,41.95
2023-06-29T18:49:50.409Z,41.83
2023-06-29T18:52:17.791Z,42.46
2023-06-29T18:54:44.715Z,43.20
2023-06-29T18:57:11.751Z,44.18
2023-06-29T18:59:39.482Z,44.83
2023-06-29T19:02:06.176Z,45.15
2023-06-29T19:04:32.799Z,45.54
2023-06-29T19:06:59.378Z,45.73
2023-06-29T19:09:26.627Z,45.84
2023-06-29T19:11:53.165Z,46.37
2023-06-29T19:14:19.736Z,47.09
2023-06-29T19:16:46.330Z,47.53
2023-06-29T19:19:13.351Z,47.98
2023-06-29T19:21:48.529Z,48.61
2023-06-29T19:24:16.585Z,51.50
2023-06-29T19:26:43.212Z,51.33
2023-06-29T19:29:11.018Z,51.49
2023-06-29T19:31:37.893Z,52.15
2023-06-29T19:34:04.584Z,52.61
2023-06-29T19:36:31.375Z,52.88
2023-06-29T19:38:58.046Z,53.54
2023-06-29T19:41:24.621Z,54.06
2023-06-29T19:43:51.600Z,54.97
2023-06-29T19:46:18.489Z,55.85
2023-06-29T19:48:45.076Z,56.30
2023-06-29T19:51:12.332Z,56.22
2023-06-29T19:53:39.886Z,56.29
2023-06-29T19:56:07.628Z,55.93
2023-06-29T19:58:34.789Z,56.20
2023-06-29T20:01:02.389Z,56.53
2023-06-29T20:03:32.758Z,56.95
2023-06-29T20:06:00.155Z,57.11
2023-06-29T20:08:27.667Z,57.01
2023-06-29T20:10:54.890Z,56.85
2023-06-29T20:13:22.284Z,56.80
2023-06-29T20:15:50.569Z,56.85
2023-06-29T20:18:18.170Z,56.55
2023-06-29T20:20:45.839Z,56.07
2023-06-29T20:23:12.977Z,55.84
2023-06-29T20:25:40.518Z,56.01
2023-06-29T20:28:07.866Z,56.54
2023-06-29T20:30:35.619Z,56.49
2023-06-29T20:33:02.607Z,56.67
2023-06-29T20:35:31.580Z,56.75
2023-06-29T20:37:58.903Z,57.06
2023-06-29T20:40:25.847Z,57.24
2023-06-29T20:42:53.099Z,57.30
2023-06-29T20:45:20.401Z,57.33
2023-06-29T20:47:47.519Z,56.95
2023-06-29T20:50:15.357Z,56.90
2023-06-29T20:52:42.261Z,56.72
2023-06-29T20:55:11.098Z,57.43
2023-06-29T20:57:38.698Z,58.05
2023-06-29T21:00:06.545Z,58.30
2023-06-29T21:02:33.485Z,58.88
2023-06-29T21:05:01.075Z,59.81
2023-06-29T21:07:32.138Z,59.96
2023-06-29T21:09:59.770Z,59.86
2023-06-29T21:12:31.191Z,60.21
2023-06-29T21:14:59.389Z,60.50
2023-06-29T21:17:27.096Z,61.60
2023-06-29T21:19:57.811Z,61.94
2023-06-29T21:22:25.682Z,61.93
2023-06-29T21:24:58.666Z,62.16
2023-06-29T21:27:27.339Z,62.33
2023-06-29T21:29:57.506Z,62.66
2023-06-29T21:32:24.765Z,63.08
2023-06-29T21:34:52.243Z,63.21
2023-06-29T21:37:21.135Z,63.72
2023-06-29T21:39:48.958Z,64.36
2023-06-29T21:42:16.609Z,64.37
2023-06-29T21:44:44.149Z,64.08
2023-06-29T21:47:11.899Z,64.16
2023-06-29T21:49:40.444Z,64.08
2023-06-29T21:52:08.257Z,64.48
2023-06-29T21:54:35.886Z,64.63
2023-06-29T21:57:03.424Z,64.96
2023-06-29T21:59:30.794Z,65.18
2023-06-29T22:02:00.311Z,64.99
2023-06-29T22:04:28.490Z,64.80
2023-06-29T22:07:02.834Z,64.51
2023-06-29T22:09:33.836Z,64.39
2023-06-29T22:12:01.616Z,63.98
2023-06-29T22:14:29.501Z,64.06
2023-06-29T22:16:57.397Z,63.85
2023-06-29T22:19:24.932Z,64.73
2023-06-29T22:22:04.083Z,65.14
2023-06-29T22:24:32.977Z,65.56
2023-06-29T22:27:00.292Z,65.89
2023-06-29T22:29:28.988Z,65.69
2023-06-29T22:31:57.316Z,65.74
2023-06-29T22:34:25.570Z,65.78
2023-06-29T22:36:52.800Z,65.54
2023-06-29T22:39:21.368Z,65.58
2023-06-29T22:41:48.832Z,65.70
2023-06-29T22:44:18.844Z,65.60
2023-06-29T22:46:48.133Z,65.59
2023-06-29T22:49:16.272Z,65.52
2023-06-29T22:51:43.626Z,65.35
2023-06-29T22:54:11.411Z,65.30
2023-06-29T22:56:38.847Z,65.28
2023-06-29T22:59:07.512Z,64.90
2023-06-29T23:01:36.163Z,64.71
2023-06-29T23:04:04.366Z,64.85
2023-06-29T23:06:32.429Z,65.22
2023-06-29T23:09:05.288Z,65.24
2023-06-29T23:11:33.382Z,64.81
2023-06-29T23:14:01.396Z,64.69
2023-06-29T23:16:32.947Z,64.75
2023-06-29T23:19:00.764Z,64.77
2023-06-29T23:21:28.507Z,64.80
2023-06-29T23:23:56.322Z,65.33
2023-06-29T23:26:25.764Z,65.11
2023-06-29T23:28:53.066Z,65.11
2023-06-29T23:31:22.214Z,65.19
2023-06-29T23:33:50.142Z,65.14
2023-06-29T23:36:23.996Z,64.99
2023-06-29T23:38:51.643Z,64.65
2023-06-29T23:41:19.472Z,64.43
2023-06-29T23:43:47.245Z,64.21
2023-06-29T23:46:15.499Z,64.16
2023-06-29T23:48:43.095Z,64.25
2023-06-29T23:51:10.384Z,64.43
2023-06-29T23:53:38.496Z,64.43
2023-06-29T23:56:05.593Z,64.44
2023-06-29T23:58:36.378Z,64.62
